sensor_id;sensor_type;location;lat;lon;timestamp;P1;durP1;ratioP1;P2;durP2;ratioP2
22040;SDS011;11184;52.444;13.578;2022-11-30T00:02:15;82.32;;;53.65;;
22040;SDS011;11184;52.444;13.578;2022-11-30T00:05:00;73.43;;;47.83;;
22040;SDS011;11184;52.444;13.578;2022-11-30T00:07:45;77.53;;;48.20;;
22040;SDS011;11184;52.444;13.578;2022-11-30T00:10:30;79.32;;;49.78;;
22040;SDS011;11184;52.444;13.578;2022-11-30T00:13:14;78.00;;;47.22;;
22040;SDS011;11184;52.444;13.578;2022-11-30T00:15:59;73.25;;;47.17;;
22040;SDS011;11184;52.444;13.578;2022-11-30T00:18:44;77.70;;;51.10;;
22040;SDS011;11184;52.444;13.578;2022-11-30T00:21:29;80.05;;;49.38;;
22040;SDS011;11184;52.444;13.578;2022-11-30T00:24:13;77.85;;;51.33;;
22040;SDS011;11184;52.444;13.578;2022-11-30T00:26:58;78.47;;;50.55;;
22040;SDS011;11184;52.444;13.578;2022-11-30T00:29:43;79.88;;;51.20;;
22040;SDS011;11184;52.444;13.578;2022-11-30T00:32:27;82.68;;;51.58;;
22040;SDS011;11184;52.444;13.578;2022-11-30T00:35:12;74.47;;;48.63;;
22040;SDS011;11184;52.444;13.578;2022-11-30T00:37:57;79.95;;;51.38;;
22040;SDS011;11184;52.444;13.578;2022-11-30T00:40:44;80.00;;;49.92;;
22040;SDS011;11184;52.444;13.578;2022-11-30T00:43:29;72.60;;;49.30;;
22040;SDS011;11184;52.444;13.578;2022-11-30T00:46:14;80.60;;;49.03;;
22040;SDS011;11184;52.444;13.578;2022-11-30T00:48:59;83.18;;;50.40;;
22040;SDS011;11184;52.444;13.578;2022-11-30T00:51:43;83.88;;;51.55;;
22040;SDS011;11184;52.444;13.578;2022-11-30T00:54:28;87.50;;;52.38;;
22040;SDS011;11184;52.444;13.578;2022-11-30T00:57:13;78.82;;;52.38;;
22040;SDS011;11184;52.444;13.578;2022-11-30T00:59:57;87.68;;;50.75;;
22040;SDS011;11184;52.444;13.578;2022-11-30T01:02:42;79.90;;;51.92;;
22040;SDS011;11184;52.444;13.578;2022-11-30T01:05:27;81.68;;;53.88;;
22040;SDS011;11184;52.444;13.578;2022-11-30T01:08:12;84.95;;;51.83;;
22040;SDS011;11184;52.444;13.578;2022-11-30T01:11:02;80.07;;;51.35;;
22040;SDS011;11184;52.444;13.578;2022-11-30T01:13:47;79.43;;;50.88;;
22040;SDS011;11184;52.444;13.578;2022-11-30T01:16:32;84.70;;;52.05;;
22040;SDS011;11184;52.444;13.578;2022-11-30T01:19:16;77.05;;;49.55;;
22040;SDS011;11184;52.444;13.578;2022-11-30T01:22:01;77.35;;;49.17;;
22040;SDS011;11184;52.444;13.578;2022-11-30T01:24:45;83.88;;;51.92;;
22040;SDS011;11184;52.444;13.578;2022-11-30T01:27:30;85.80;;;53.13;;
22040;SDS011;11184;52.444;13.578;2022-11-30T01:30:15;82.30;;;51.10;;
22040;SDS011;11184;52.444;13.578;2022-11-30T01:33:01;84.18;;;52.50;;
22040;SDS011;11184;52.444;13.578;2022-11-30T01:35:46;85.32;;;53.17;;
22040;SDS011;11184;52.444;13.578;2022-11-30T01:38:31;80.78;;;52.22;;
22040;SDS011;11184;52.444;13.578;2022-11-30T01:41:17;81.93;;;52.53;;
22040;SDS011;11184;52.444;13.578;2022-11-30T01:47:00;80.90;;;50.05;;
22040;SDS011;11184;52.444;13.578;2022-11-30T01:49:56;75.25;;;49.35;;
22040;SDS011;11184;52.444;13.578;2022-11-30T01:52:43;88.13;;;53.97;;
22040;SDS011;11184;52.444;13.578;2022-11-30T01:55:29;82.13;;;53.80;;
22040;SDS011;11184;52.444;13.578;2022-11-30T01:58:22;78.60;;;50.38;;
22040;SDS011;11184;52.444;13.578;2022-11-30T02:01:07;85.40;;;49.13;;
22040;SDS011;11184;52.444;13.578;2022-11-30T02:03:54;86.07;;;51.78;;
22040;SDS011;11184;52.444;13.578;2022-11-30T02:06:40;79.53;;;51.65;;
22040;SDS011;11184;52.444;13.578;2022-11-30T02:09:25;82.00;;;50.88;;
22040;SDS011;11184;52.444;13.578;2022-11-30T02:12:14;85.03;;;52.40;;
22040;SDS011;11184;52.444;13.578;2022-11-30T02:15:04;83.95;;;51.40;;
22040;SDS011;11184;52.444;13.578;2022-11-30T02:17:52;87.60;;;52.92;;
22040;SDS011;11184;52.444;13.578;2022-11-30T02:29:40;85.00;;;51.15;;
22040;SDS011;11184;52.444;13.578;2022-11-30T02:32:37;80.15;;;50.35;;
22040;SDS011;11184;52.444;13.578;2022-11-30T02:35:24;85.85;;;50.08;;
22040;SDS011;11184;52.444;13.578;2022-11-30T02:38:10;84.90;;;51.88;;
22040;SDS011;11184;52.444;13.578;2022-11-30T02:40:55;82.95;;;50.47;;
22040;SDS011;11184;52.444;13.578;2022-11-30T02:43:40;81.72;;;51.45;;
22040;SDS011;11184;52.444;13.578;2022-11-30T02:46:26;82.40;;;50.35;;
22040;SDS011;11184;52.444;13.578;2022-11-30T02:49:18;91.63;;;53.03;;
22040;SDS011;11184;52.444;13.578;2022-11-30T02:52:05;85.05;;;52.17;;
22040;SDS011;11184;52.444;13.578;2022-11-30T02:54:51;82.13;;;50.40;;
22040;SDS011;11184;52.444;13.578;2022-11-30T02:57:36;80.85;;;52.63;;
22040;SDS011;11184;52.444;13.578;2022-11-30T03:00:21;85.82;;;52.00;;
22040;SDS011;11184;52.444;13.578;2022-11-30T03:03:06;78.63;;;51.67;;
22040;SDS011;11184;52.444;13.578;2022-11-30T03:05:50;75.63;;;47.88;;
22040;SDS011;11184;52.444;13.578;2022-11-30T03:08:35;79.90;;;53.65;;
22040;SDS011;11184;52.444;13.578;2022-11-30T03:11:20;84.93;;;49.28;;
22040;SDS011;11184;52.444;13.578;2022-11-30T03:14:04;81.45;;;51.53;;
22040;SDS011;11184;52.444;13.578;2022-11-30T03:16:49;84.80;;;52.70;;
22040;SDS011;11184;52.444;13.578;2022-11-30T03:19:33;89.25;;;54.15;;
22040;SDS011;11184;52.444;13.578;2022-11-30T03:22:18;78.55;;;47.75;;
22040;SDS011;11184;52.444;13.578;2022-11-30T03:25:04;78.90;;;49.55;;
22040;SDS011;11184;52.444;13.578;2022-11-30T03:27:48;80.95;;;51.15;;
22040;SDS011;11184;52.444;13.578;2022-11-30T03:30:33;88.85;;;51.88;;
22040;SDS011;11184;52.444;13.578;2022-11-30T03:33:18;83.38;;;51.47;;
22040;SDS011;11184;52.444;13.578;2022-11-30T03:36:04;79.38;;;52.75;;
22040;SDS011;11184;52.444;13.578;2022-11-30T03:38:49;85.40;;;52.50;;
22040;SDS011;11184;52.444;13.578;2022-11-30T03:41:33;84.63;;;53.53;;
22040;SDS011;11184;52.444;13.578;2022-11-30T03:44:18;83.35;;;53.15;;
22040;SDS011;11184;52.444;13.578;2022-11-30T03:47:03;81.90;;;53.83;;
22040;SDS011;11184;52.444;13.578;2022-11-30T03:49:47;91.43;;;55.25;;
22040;SDS011;11184;52.444;13.578;2022-11-30T03:52:32;84.40;;;56.95;;
22040;SDS011;11184;52.444;13.578;2022-11-30T03:55:16;78.85;;;53.58;;
22040;SDS011;11184;52.444;13.578;2022-11-30T03:58:01;86.90;;;54.83;;
22040;SDS011;11184;52.444;13.578;2022-11-30T04:00:46;85.30;;;52.63;;
22040;SDS011;11184;52.444;13.578;2022-11-30T04:03:31;90.97;;;57.65;;
22040;SDS011;11184;52.444;13.578;2022-11-30T04:06:16;86.43;;;51.92;;
22040;SDS011;11184;52.444;13.578;2022-11-30T04:09:01;85.13;;;53.47;;
22040;SDS011;11184;52.444;13.578;2022-11-30T04:11:45;92.10;;;56.63;;
22040;SDS011;11184;52.444;13.578;2022-11-30T04:14:30;81.03;;;52.88;;
22040;SDS011;11184;52.444;13.578;2022-11-30T04:17:14;85.03;;;54.05;;
22040;SDS011;11184;52.444;13.578;2022-11-30T04:19:59;82.75;;;51.63;;
22040;SDS011;11184;52.444;13.578;2022-11-30T04:22:43;82.18;;;52.88;;
22040;SDS011;11184;52.444;13.578;2022-11-30T04:25:28;87.05;;;53.15;;
22040;SDS011;11184;52.444;13.578;2022-11-30T04:28:13;86.68;;;52.65;;
22040;SDS011;11184;52.444;13.578;2022-11-30T04:30:58;83.15;;;52.35;;
22040;SDS011;11184;52.444;13.578;2022-11-30T04:33:44;90.22;;;54.03;;
22040;SDS011;11184;52.444;13.578;2022-11-30T04:36:28;87.75;;;54.67;;
22040;SDS011;11184;52.444;13.578;2022-11-30T04:39:13;87.35;;;53.83;;
22040;SDS011;11184;52.444;13.578;2022-11-30T04:41:58;81.40;;;54.35;;
22040;SDS011;11184;52.444;13.578;2022-11-30T04:44:42;88.30;;;54.90;;
22040;SDS011;11184;52.444;13.578;2022-11-30T04:47:27;85.35;;;52.83;;
22040;SDS011;11184;52.444;13.578;2022-11-30T04:50:11;85.10;;;53.95;;
22040;SDS011;11184;52.444;13.578;2022-11-30T04:52:56;79.78;;;50.92;;
22040;SDS011;11184;52.444;13.578;2022-11-30T04:55:40;84.32;;;52.80;;
22040;SDS011;11184;52.444;13.578;2022-11-30T04:58:25;82.63;;;52.58;;
22040;SDS011;11184;52.444;13.578;2022-11-30T05:01:10;95.40;;;54.83;;
22040;SDS011;11184;52.444;13.578;2022-11-30T05:03:54;87.25;;;53.17;;
22040;SDS011;11184;52.444;13.578;2022-11-30T05:06:42;84.65;;;49.58;;
22040;SDS011;11184;52.444;13.578;2022-11-30T05:09:26;87.40;;;53.03;;
22040;SDS011;11184;52.444;13.578;2022-11-30T05:12:11;82.63;;;53.15;;
22040;SDS011;11184;52.444;13.578;2022-11-30T05:14:55;91.43;;;54.35;;
22040;SDS011;11184;52.444;13.578;2022-11-30T05:17:40;88.65;;;53.28;;
22040;SDS011;11184;52.444;13.578;2022-11-30T05:20:25;89.63;;;53.33;;
22040;SDS011;11184;52.444;13.578;2022-11-30T05:23:10;82.40;;;50.58;;
22040;SDS011;11184;52.444;13.578;2022-11-30T05:25:54;87.15;;;54.75;;
22040;SDS011;11184;52.444;13.578;2022-11-30T05:28:39;81.20;;;52.33;;
22040;SDS011;11184;52.444;13.578;2022-11-30T05:31:24;90.75;;;54.65;;
22040;SDS011;11184;52.444;13.578;2022-11-30T05:34:09;84.07;;;52.53;;
22040;SDS011;11184;52.444;13.578;2022-11-30T05:36:53;84.63;;;50.70;;
22040;SDS011;11184;52.444;13.578;2022-11-30T05:39:38;86.75;;;53.47;;
22040;SDS011;11184;52.444;13.578;2022-11-30T05:42:23;83.50;;;52.00;;
22040;SDS011;11184;52.444;13.578;2022-11-30T05:45:08;88.93;;;52.10;;
22040;SDS011;11184;52.444;13.578;2022-11-30T05:47:53;86.30;;;52.95;;
22040;SDS011;11184;52.444;13.578;2022-11-30T05:50:38;99.72;;;53.25;;
22040;SDS011;11184;52.444;13.578;2022-11-30T05:53:22;92.70;;;53.63;;
22040;SDS011;11184;52.444;13.578;2022-11-30T05:56:08;87.55;;;54.58;;
22040;SDS011;11184;52.444;13.578;2022-11-30T05:58:53;82.47;;;51.47;;
22040;SDS011;11184;52.444;13.578;2022-11-30T06:01:38;82.32;;;51.45;;
22040;SDS011;11184;52.444;13.578;2022-11-30T06:04:23;81.10;;;51.80;;
22040;SDS011;11184;52.444;13.578;2022-11-30T06:07:07;81.43;;;52.15;;
22040;SDS011;11184;52.444;13.578;2022-11-30T06:09:54;83.03;;;49.45;;
22040;SDS011;11184;52.444;13.578;2022-11-30T06:12:38;84.35;;;51.53;;
22040;SDS011;11184;52.444;13.578;2022-11-30T06:15:23;84.30;;;52.28;;
22040;SDS011;11184;52.444;13.578;2022-11-30T06:18:08;94.55;;;52.67;;
22040;SDS011;11184;52.444;13.578;2022-11-30T06:20:57;83.50;;;51.92;;
22040;SDS011;11184;52.444;13.578;2022-11-30T06:23:42;81.03;;;51.28;;
22040;SDS011;11184;52.444;13.578;2022-11-30T06:26:27;81.90;;;53.88;;
22040;SDS011;11184;52.444;13.578;2022-11-30T06:29:12;83.70;;;50.88;;
22040;SDS011;11184;52.444;13.578;2022-11-30T06:31:56;86.97;;;52.90;;
22040;SDS011;11184;52.444;13.578;2022-11-30T06:34:41;82.53;;;50.90;;
22040;SDS011;11184;52.444;13.578;2022-11-30T06:37:25;77.55;;;52.22;;
22040;SDS011;11184;52.444;13.578;2022-11-30T06:40:11;96.10;;;54.40;;
22040;SDS011;11184;52.444;13.578;2022-11-30T06:42:56;76.47;;;49.22;;
22040;SDS011;11184;52.444;13.578;2022-11-30T06:45:43;84.75;;;50.35;;
22040;SDS011;11184;52.444;13.578;2022-11-30T06:48:28;82.85;;;51.33;;
22040;SDS011;11184;52.444;13.578;2022-11-30T06:51:13;86.47;;;50.70;;
22040;SDS011;11184;52.444;13.578;2022-11-30T06:53:58;89.55;;;53.67;;
22040;SDS011;11184;52.444;13.578;2022-11-30T06:56:42;86.38;;;51.33;;
22040;SDS011;11184;52.444;13.578;2022-11-30T06:59:27;76.50;;;48.10;;
22040;SDS011;11184;52.444;13.578;2022-11-30T07:02:12;80.82;;;50.05;;
22040;SDS011;11184;52.444;13.578;2022-11-30T07:04:57;81.22;;;50.45;;
22040;SDS011;11184;52.444;13.578;2022-11-30T07:07:41;83.82;;;51.55;;
22040;SDS011;11184;52.444;13.578;2022-11-30T07:10:26;84.90;;;52.70;;
22040;SDS011;11184;52.444;13.578;2022-11-30T07:13:15;83.05;;;51.70;;
22040;SDS011;11184;52.444;13.578;2022-11-30T07:16:04;83.28;;;50.72;;
22040;SDS011;11184;52.444;13.578;2022-11-30T07:18:49;80.63;;;51.15;;
22040;SDS011;11184;52.444;13.578;2022-11-30T07:21:33;87.43;;;51.78;;
22040;SDS011;11184;52.444;13.578;2022-11-30T07:24:18;82.07;;;53.28;;
22040;SDS011;11184;52.444;13.578;2022-11-30T07:27:22;80.82;;;52.05;;
22040;SDS011;11184;52.444;13.578;2022-11-30T07:30:06;85.82;;;51.33;;
22040;SDS011;11184;52.444;13.578;2022-11-30T07:32:51;81.03;;;51.20;;
22040;SDS011;11184;52.444;13.578;2022-11-30T07:35:36;78.45;;;50.30;;
22040;SDS011;11184;52.444;13.578;2022-11-30T07:38:21;77.05;;;49.35;;
22040;SDS011;11184;52.444;13.578;2022-11-30T07:41:05;80.85;;;50.70;;
22040;SDS011;11184;52.444;13.578;2022-11-30T07:43:50;82.57;;;50.95;;
22040;SDS011;11184;52.444;13.578;2022-11-30T07:46:35;86.43;;;53.47;;
22040;SDS011;11184;52.444;13.578;2022-11-30T07:49:20;88.43;;;51.03;;
22040;SDS011;11184;52.444;13.578;2022-11-30T07:52:04;83.90;;;52.42;;
22040;SDS011;11184;52.444;13.578;2022-11-30T07:54:49;76.65;;;48.63;;
22040;SDS011;11184;52.444;13.578;2022-11-30T07:57:34;90.97;;;53.55;;
22040;SDS011;11184;52.444;13.578;2022-11-30T08:00:18;82.53;;;48.42;;
22040;SDS011;11184;52.444;13.578;2022-11-30T08:03:03;76.55;;;50.53;;
22040;SDS011;11184;52.444;13.578;2022-11-30T08:05:47;91.03;;;52.10;;
22040;SDS011;11184;52.444;13.578;2022-11-30T08:08:33;84.90;;;51.60;;
22040;SDS011;11184;52.444;13.578;2022-11-30T08:11:26;79.25;;;50.13;;
22040;SDS011;11184;52.444;13.578;2022-11-30T08:14:11;81.80;;;49.33;;
22040;SDS011;11184;52.444;13.578;2022-11-30T08:16:56;81.53;;;51.05;;
22040;SDS011;11184;52.444;13.578;2022-11-30T08:19:40;86.10;;;51.35;;
22040;SDS011;11184;52.444;13.578;2022-11-30T08:22:25;76.50;;;49.65;;
22040;SDS011;11184;52.444;13.578;2022-11-30T08:25:10;80.97;;;52.05;;
22040;SDS011;11184;52.444;13.578;2022-11-30T08:27:54;79.85;;;48.22;;
22040;SDS011;11184;52.444;13.578;2022-11-30T08:30:39;75.65;;;48.83;;
22040;SDS011;11184;52.444;13.578;2022-11-30T08:33:24;76.68;;;50.30;;
22040;SDS011;11184;52.444;13.578;2022-11-30T08:36:18;71.60;;;48.28;;
22040;SDS011;11184;52.444;13.578;2022-11-30T08:39:04;76.40;;;49.83;;
22040;SDS011;11184;52.444;13.578;2022-11-30T08:41:49;83.38;;;49.90;;
22040;SDS011;11184;52.444;13.578;2022-11-30T08:44:35;83.38;;;50.47;;
22040;SDS011;11184;52.444;13.578;2022-11-30T08:47:20;74.65;;;47.50;;
22040;SDS011;11184;52.444;13.578;2022-11-30T08:50:05;79.82;;;49.35;;
22040;SDS011;11184;52.444;13.578;2022-11-30T08:52:51;77.72;;;49.35;;
22040;SDS011;11184;52.444;13.578;2022-11-30T08:55:36;74.85;;;47.72;;
22040;SDS011;11184;52.444;13.578;2022-11-30T08:58:21;89.28;;;50.63;;
22040;SDS011;11184;52.444;13.578;2022-11-30T09:01:06;81.35;;;50.50;;
22040;SDS011;11184;52.444;13.578;2022-11-30T09:03:52;79.88;;;47.60;;
22040;SDS011;11184;52.444;13.578;2022-11-30T09:06:37;78.80;;;50.45;;
22040;SDS011;11184;52.444;13.578;2022-11-30T09:09:21;80.03;;;50.28;;
22040;SDS011;11184;52.444;13.578;2022-11-30T09:12:06;71.93;;;48.83;;
22040;SDS011;11184;52.444;13.578;2022-11-30T09:14:51;75.47;;;47.13;;
22040;SDS011;11184;52.444;13.578;2022-11-30T09:17:35;78.50;;;47.92;;
22040;SDS011;11184;52.444;13.578;2022-11-30T09:20:20;76.32;;;49.40;;
22040;SDS011;11184;52.444;13.578;2022-11-30T09:23:05;69.93;;;47.42;;
22040;SDS011;11184;52.444;13.578;2022-11-30T09:25:53;69.55;;;47.50;;
22040;SDS011;11184;52.444;13.578;2022-11-30T09:28:38;75.00;;;48.58;;
22040;SDS011;11184;52.444;13.578;2022-11-30T09:31:23;75.50;;;48.78;;
22040;SDS011;11184;52.444;13.578;2022-11-30T09:34:09;75.97;;;48.30;;
22040;SDS011;11184;52.444;13.578;2022-11-30T09:36:54;77.85;;;48.22;;
22040;SDS011;11184;52.444;13.578;2022-11-30T09:39:39;77.07;;;48.70;;
22040;SDS011;11184;52.444;13.578;2022-11-30T09:42:25;73.65;;;47.40;;
22040;SDS011;11184;52.444;13.578;2022-11-30T09:45:18;75.60;;;48.13;;
22040;SDS011;11184;52.444;13.578;2022-11-30T09:50:51;68.80;;;45.78;;
22040;SDS011;11184;52.444;13.578;2022-11-30T09:53:39;72.75;;;48.28;;
22040;SDS011;11184;52.444;13.578;2022-11-30T09:56:26;74.75;;;46.00;;
22040;SDS011;11184;52.444;13.578;2022-11-30T09:59:15;67.30;;;44.58;;
22040;SDS011;11184;52.444;13.578;2022-11-30T10:02:08;72.18;;;47.40;;
22040;SDS011;11184;52.444;13.578;2022-11-30T10:04:56;73.13;;;50.05;;
22040;SDS011;11184;52.444;13.578;2022-11-30T10:10:53;74.53;;;49.22;;
22040;SDS011;11184;52.444;13.578;2022-11-30T10:13:46;71.88;;;45.67;;
22040;SDS011;11184;52.444;13.578;2022-11-30T10:16:43;71.05;;;44.92;;
22040;SDS011;11184;52.444;13.578;2022-11-30T10:22:46;69.40;;;45.10;;
22040;SDS011;11184;52.444;13.578;2022-11-30T10:25:37;70.28;;;45.20;;
22040;SDS011;11184;52.444;13.578;2022-11-30T10:28:47;65.97;;;43.63;;
22040;SDS011;11184;52.444;13.578;2022-11-30T10:31:34;65.90;;;43.63;;
22040;SDS011;11184;52.444;13.578;2022-11-30T10:34:32;68.57;;;43.72;;
22040;SDS011;11184;52.444;13.578;2022-11-30T10:37:21;68.25;;;42.38;;
22040;SDS011;11184;52.444;13.578;2022-11-30T10:40:17;72.47;;;45.72;;
22040;SDS011;11184;52.444;13.578;2022-11-30T10:46:06;67.88;;;42.00;;
22040;SDS011;11184;52.444;13.578;2022-11-30T10:48:57;65.30;;;44.85;;
22040;SDS011;11184;52.444;13.578;2022-11-30T10:51:46;65.35;;;43.28;;
22040;SDS011;11184;52.444;13.578;2022-11-30T10:54:36;71.47;;;45.00;;
22040;SDS011;11184;52.444;13.578;2022-11-30T10:57:21;65.35;;;43.80;;
22040;SDS011;11184;52.444;13.578;2022-11-30T11:00:10;61.95;;;41.95;;
22040;SDS011;11184;52.444;13.578;2022-11-30T11:02:56;69.07;;;43.65;;
22040;SDS011;11184;52.444;13.578;2022-11-30T11:05:40;67.80;;;44.05;;
22040;SDS011;11184;52.444;13.578;2022-11-30T11:08:27;62.15;;;40.47;;
22040;SDS011;11184;52.444;13.578;2022-11-30T11:11:31;71.22;;;44.78;;
22040;SDS011;11184;52.444;13.578;2022-11-30T11:14:18;62.30;;;41.50;;
22040;SDS011;11184;52.444;13.578;2022-11-30T11:17:05;67.00;;;43.58;;
22040;SDS011;11184;52.444;13.578;2022-11-30T11:19:50;68.90;;;42.95;;
22040;SDS011;11184;52.444;13.578;2022-11-30T11:22:35;66.13;;;43.53;;
22040;SDS011;11184;52.444;13.578;2022-11-30T11:25:22;69.65;;;44.80;;
22040;SDS011;11184;52.444;13.578;2022-11-30T11:28:13;66.70;;;42.83;;
22040;SDS011;11184;52.444;13.578;2022-11-30T11:30:58;67.80;;;44.08;;
22040;SDS011;11184;52.444;13.578;2022-11-30T11:33:50;69.10;;;45.53;;
22040;SDS011;11184;52.444;13.578;2022-11-30T11:36:35;74.00;;;47.72;;
22040;SDS011;11184;52.444;13.578;2022-11-30T11:39:24;76.53;;;49.40;;
22040;SDS011;11184;52.444;13.578;2022-11-30T11:42:16;74.80;;;47.40;;
22040;SDS011;11184;52.444;13.578;2022-11-30T11:45:03;74.03;;;49.13;;
22040;SDS011;11184;52.444;13.578;2022-11-30T11:47:56;74.10;;;48.20;;
22040;SDS011;11184;52.444;13.578;2022-11-30T11:50:41;73.97;;;49.08;;
22040;SDS011;11184;52.444;13.578;2022-11-30T11:53:42;75.55;;;47.97;;
22040;SDS011;11184;52.444;13.578;2022-11-30T11:56:28;74.25;;;46.35;;
22040;SDS011;11184;52.444;13.578;2022-11-30T11:59:17;74.75;;;50.03;;
22040;SDS011;11184;52.444;13.578;2022-11-30T12:04:53;82.55;;;52.50;;
22040;SDS011;11184;52.444;13.578;2022-11-30T12:10:47;83.43;;;52.33;;
22040;SDS011;11184;52.444;13.578;2022-11-30T12:13:36;85.00;;;53.38;;
22040;SDS011;11184;52.444;13.578;2022-11-30T12:16:36;84.20;;;52.85;;
22040;SDS011;11184;52.444;13.578;2022-11-30T12:19:31;85.32;;;53.90;;
22040;SDS011;11184;52.444;13.578;2022-11-30T12:22:40;77.88;;;50.60;;
22040;SDS011;11184;52.444;13.578;2022-11-30T12:25:28;87.10;;;54.38;;
22040;SDS011;11184;52.444;13.578;2022-11-30T12:28:19;79.28;;;49.78;;
22040;SDS011;11184;52.444;13.578;2022-11-30T12:31:11;72.78;;;46.88;;
22040;SDS011;11184;52.444;13.578;2022-11-30T12:37:11;75.20;;;47.08;;
22040;SDS011;11184;52.444;13.578;2022-11-30T12:45:43;75.55;;;51.03;;
22040;SDS011;11184;52.444;13.578;2022-11-30T12:48:40;78.15;;;48.67;;
22040;SDS011;11184;52.444;13.578;2022-11-30T12:51:32;73.57;;;49.08;;
22040;SDS011;11184;52.444;13.578;2022-11-30T12:57:14;84.97;;;53.30;;
22040;SDS011;11184;52.444;13.578;2022-11-30T13:00:06;84.07;;;53.95;;
22040;SDS011;11184;52.444;13.578;2022-11-30T13:03:12;88.30;;;53.28;;
22040;SDS011;11184;52.444;13.578;2022-11-30T13:06:00;94.00;;;54.78;;
22040;SDS011;11184;52.444;13.578;2022-11-30T13:12:12;96.93;;;55.72;;
22040;SDS011;11184;52.444;13.578;2022-11-30T13:14:58;94.70;;;57.20;;
22040;SDS011;11184;52.444;13.578;2022-11-30T13:17:43;93.57;;;55.25;;
22040;SDS011;11184;52.444;13.578;2022-11-30T13:20:32;92.57;;;56.45;;
22040;SDS011;11184;52.444;13.578;2022-11-30T13:26:11;90.63;;;53.20;;
22040;SDS011;11184;52.444;13.578;2022-11-30T13:31:56;99.22;;;56.08;;
22040;SDS011;11184;52.444;13.578;2022-11-30T13:34:46;89.43;;;53.88;;
22040;SDS011;11184;52.444;13.578;2022-11-30T13:37:31;92.38;;;55.30;;
22040;SDS011;11184;52.444;13.578;2022-11-30T13:40:19;96.78;;;56.63;;
22040;SDS011;11184;52.444;13.578;2022-11-30T13:43:12;98.18;;;54.85;;
22040;SDS011;11184;52.444;13.578;2022-11-30T13:46:14;100.93;;;58.25;;
22040;SDS011;11184;52.444;13.578;2022-11-30T13:49:10;113.07;;;63.50;;
22040;SDS011;11184;52.444;13.578;2022-11-30T13:52:03;102.38;;;57.92;;
22040;SDS011;11184;52.444;13.578;2022-11-30T13:54:49;99.18;;;56.58;;
22040;SDS011;11184;52.444;13.578;2022-11-30T14:00:44;106.68;;;60.47;;
22040;SDS011;11184;52.444;13.578;2022-11-30T14:03:28;105.72;;;58.67;;
22040;SDS011;11184;52.444;13.578;2022-11-30T14:15:25;103.53;;;56.47;;
22040;SDS011;11184;52.444;13.578;2022-11-30T14:18:17;104.40;;;56.80;;
22040;SDS011;11184;52.444;13.578;2022-11-30T14:21:09;121.57;;;62.35;;
22040;SDS011;11184;52.444;13.578;2022-11-30T14:23:58;109.05;;;60.58;;
22040;SDS011;11184;52.444;13.578;2022-11-30T14:26:45;107.25;;;59.05;;
22040;SDS011;11184;52.444;13.578;2022-11-30T14:29:36;110.82;;;60.83;;
22040;SDS011;11184;52.444;13.578;2022-11-30T14:32:25;107.00;;;60.50;;
22040;SDS011;11184;52.444;13.578;2022-11-30T14:35:13;114.85;;;59.92;;
22040;SDS011;11184;52.444;13.578;2022-11-30T14:37:59;105.22;;;57.30;;
22040;SDS011;11184;52.444;13.578;2022-11-30T14:40:50;122.95;;;64.50;;
22040;SDS011;11184;52.444;13.578;2022-11-30T14:43:35;121.10;;;62.17;;
22040;SDS011;11184;52.444;13.578;2022-11-30T14:46:20;117.65;;;60.40;;
22040;SDS011;11184;52.444;13.578;2022-11-30T14:49:14;125.97;;;62.72;;
22040;SDS011;11184;52.444;13.578;2022-11-30T14:52:03;113.88;;;60.75;;
22040;SDS011;11184;52.444;13.578;2022-11-30T14:57:35;113.72;;;57.20;;
22040;SDS011;11184;52.444;13.578;2022-11-30T15:00:22;110.35;;;54.97;;
22040;SDS011;11184;52.444;13.578;2022-11-30T15:03:16;106.53;;;57.67;;
22040;SDS011;11184;52.444;13.578;2022-11-30T15:06:02;113.40;;;53.88;;
22040;SDS011;11184;52.444;13.578;2022-11-30T15:08:49;113.65;;;55.35;;
22040;SDS011;11184;52.444;13.578;2022-11-30T15:11:38;113.72;;;53.35;;
22040;SDS011;11184;52.444;13.578;2022-11-30T15:14:24;115.50;;;59.97;;
22040;SDS011;11184;52.444;13.578;2022-11-30T15:17:11;111.40;;;56.03;;
22040;SDS011;11184;52.444;13.578;2022-11-30T15:19:57;119.13;;;56.90;;
22040;SDS011;11184;52.444;13.578;2022-11-30T15:22:41;103.40;;;53.13;;
22040;SDS011;11184;52.444;13.578;2022-11-30T15:25:28;104.07;;;53.10;;
22040;SDS011;11184;52.444;13.578;2022-11-30T15:28:16;105.82;;;51.65;;
22040;SDS011;11184;52.444;13.578;2022-11-30T15:31:04;113.70;;;54.20;;
22040;SDS011;11184;52.444;13.578;2022-11-30T15:33:49;116.03;;;52.80;;
22040;SDS011;11184;52.444;13.578;2022-11-30T15:36:35;112.10;;;52.72;;
22040;SDS011;11184;52.444;13.578;2022-11-30T15:39:22;114.90;;;53.25;;
22040;SDS011;11184;52.444;13.578;2022-11-30T15:42:13;124.22;;;55.88;;
22040;SDS011;11184;52.444;13.578;2022-11-30T15:45:13;112.20;;;54.85;;
22040;SDS011;11184;52.444;13.578;2022-11-30T15:47:59;114.75;;;52.88;;
22040;SDS011;11184;52.444;13.578;2022-11-30T15:50:44;112.85;;;52.20;;
22040;SDS011;11184;52.444;13.578;2022-11-30T15:53:30;114.05;;;51.42;;
22040;SDS011;11184;52.444;13.578;2022-11-30T15:56:22;111.93;;;52.65;;
22040;SDS011;11184;52.444;13.578;2022-11-30T15:59:20;103.97;;;50.95;;
22040;SDS011;11184;52.444;13.578;2022-11-30T16:02:05;96.82;;;48.28;;
22040;SDS011;11184;52.444;13.578;2022-11-30T16:07:48;110.40;;;54.22;;
22040;SDS011;11184;52.444;13.578;2022-11-30T16:10:34;112.45;;;54.13;;
22040;SDS011;11184;52.444;13.578;2022-11-30T16:13:20;117.53;;;52.13;;
22040;SDS011;11184;52.444;13.578;2022-11-30T16:16:18;126.35;;;53.03;;
22040;SDS011;11184;52.444;13.578;2022-11-30T16:19:04;111.03;;;54.97;;
22040;SDS011;11184;52.444;13.578;2022-11-30T16:21:48;116.78;;;50.65;;
22040;SDS011;11184;52.444;13.578;2022-11-30T16:24:33;115.70;;;52.70;;
22040;SDS011;11184;52.444;13.578;2022-11-30T16:27:18;119.72;;;50.60;;
22040;SDS011;11184;52.444;13.578;2022-11-30T16:30:08;120.15;;;56.67;;
22040;SDS011;11184;52.444;13.578;2022-11-30T16:32:53;110.35;;;52.47;;
22040;SDS011;11184;52.444;13.578;2022-11-30T16:35:39;122.03;;;55.72;;
22040;SDS011;11184;52.444;13.578;2022-11-30T16:38:25;114.10;;;55.22;;
22040;SDS011;11184;52.444;13.578;2022-11-30T16:43:54;112.40;;;54.35;;
22040;SDS011;11184;52.444;13.578;2022-11-30T16:46:40;124.00;;;53.83;;
22040;SDS011;11184;52.444;13.578;2022-11-30T16:49:24;107.78;;;51.70;;
22040;SDS011;11184;52.444;13.578;2022-11-30T16:52:13;107.10;;;52.22;;
22040;SDS011;11184;52.444;13.578;2022-11-30T16:55:02;110.93;;;54.50;;
22040;SDS011;11184;52.444;13.578;2022-11-30T16:57:50;120.85;;;53.30;;
22040;SDS011;11184;52.444;13.578;2022-11-30T17:00:37;115.55;;;50.80;;
22040;SDS011;11184;52.444;13.578;2022-11-30T17:03:23;121.15;;;64.95;;
22040;SDS011;11184;52.444;13.578;2022-11-30T17:06:12;114.10;;;55.47;;
22040;SDS011;11184;52.444;13.578;2022-11-30T17:09:03;112.65;;;52.58;;
22040;SDS011;11184;52.444;13.578;2022-11-30T17:11:51;113.38;;;51.03;;